Terminal Aerodrome Forecast
Issued by NWS Sterling, VA

Home | Current Version | Previous Version | Text Only | Print | Product List | Glossary On
Versions: 1 2 3 4 5 6 7 8 9 10 11 12 13 14 15 16 17 18 19 20 21 22 23 24 25 26 27 28
000
FTUS41 KLWX 282336
TAFDCA
TAF
KDCA 282336Z 2900/2924 16006KT 5SM -SHRA VCTS BKN050CB
     FM290100 17004KT P6SM SCT050
     FM290600 VRB03KT 3SM BR SCT050
     FM291200 VRB03KT P6SM BKN050
     FM291400 20005KT P6SM SCT050
     FM291800 18007KT P6SM SCT050
     FM292000 18007KT P6SM BKN050=

USA.gov is the U.S. government's official web portal to all federal, state and local government web resources and services.